<?xml version="1.0" encoding="UTF-8" standalone="no" ?>
<gpx xmlns="http://www.topografix.com/GPX/1/1" xmlns:xsi="http://www.w3.org/2001/XMLSchema-instance" xsi:schemaLocation="http://www.topografix.com/GPX/1/1 http://www.topografix.com/GPX/1/1/gpx.xsd" version="1.1" creator="VisuGPX - https://www.visugpx.com">
  <metadata>
    <name>Rivière Saine au long des gorges de la Langouette et de Malvaux</name>
  </metadata>
  <wpt lat="46.65592" lon="6.00522">
    <ele>696</ele>
    <name><![CDATA[Parking Gorges de la Langouette]]></name>
    <type><![CDATA[GENERIC]]></type>
  </wpt>
  <wpt lat="46.65335" lon="6.00944">
    <ele>715</ele>
    <name><![CDATA[Les Planches en Montagne]]></name>
    <type><![CDATA[GENERIC]]></type>
  </wpt>
  <wpt lat="46.64702" lon="6.01989">
    <ele>789</ele>
    <name><![CDATA[Traversée D127]]></name>
    <type><![CDATA[GENERIC]]></type>
  </wpt>
  <wpt lat="46.63531" lon="6.01202">
    <ele>883</ele>
    <name><![CDATA[Choix boucle de 9,5km ou 11km]]></name>
    <type><![CDATA[GENERIC]]></type>
  </wpt>
  <wpt lat="46.62858" lon="6.00727">
    <ele>889</ele>
    <name><![CDATA[Exploitation agricole]]></name>
    <type><![CDATA[GENERIC]]></type>
  </wpt>
  <wpt lat="46.62992" lon="6.01962">
    <ele>885</ele>
    <name><![CDATA[Avant descente Foncine le Bas]]></name>
    <type><![CDATA[GENERIC]]></type>
  </wpt>
  <wpt lat="46.6368" lon="6.03014">
    <ele>793</ele>
    <name><![CDATA[Centre de Foncine-le-Bas]]></name>
    <type><![CDATA[GENERIC]]></type>
  </wpt>
  <wpt lat="46.63766" lon="6.0304">
    <ele>794</ele>
    <name><![CDATA[Vers le viaduc]]></name>
    <type><![CDATA[GENERIC]]></type>
  </wpt>
  <wpt lat="46.64027" lon="6.02968">
    <ele>793</ele>
    <name><![CDATA[Chemin du tram gorges de Malvaux]]></name>
    <type><![CDATA[GENERIC]]></type>
  </wpt>
  <wpt lat="46.64835" lon="6.02354">
    <ele>742</ele>
    <name><![CDATA[Point de passage 10]]></name>
    <type><![CDATA[GENERIC]]></type>
  </wpt>
  <wpt lat="46.65413" lon="6.01329">
    <ele>732</ele>
    <name><![CDATA[Croisement de chemin]]></name>
    <type><![CDATA[GENERIC]]></type>
  </wpt>
  <wpt lat="46.65381" lon="6.00952">
    <ele>723</ele>
    <name><![CDATA[Lavoir]]></name>
    <type><![CDATA[GENERIC]]></type>
  </wpt>
  <wpt lat="46.65592" lon="6.00522">
    <ele>696</ele>
    <name><![CDATA[Parking Gorge de la Langouette]]></name>
    <type><![CDATA[GENERIC]]></type>
  </wpt>
  <trk>
    <name><![CDATA[Rivière Saine au long des gorges de la Langouette et de Malvaux]]></name>
    <trkseg>
      <trkpt lat="46.65592" lon="6.00522">
        <ele>696</ele>
        <time>2020-07-20T07:53:36.000Z</time>
      </trkpt>
      <trkpt lat="46.65577" lon="6.00481">
        <ele>695</ele>
        <time>2020-07-20T07:53:36.000Z</time>
      </trkpt>
      <trkpt lat="46.65545" lon="6.00515">
        <ele>699</ele>
        <time>2020-07-20T07:53:36.000Z</time>
      </trkpt>
      <trkpt lat="46.65529" lon="6.00539">
        <ele>700</ele>
        <time>2020-07-20T07:55:44.000Z</time>
      </trkpt>
      <trkpt lat="46.6551" lon="6.00558">
        <ele>701</ele>
        <time>2020-07-20T07:55:44.000Z</time>
      </trkpt>
      <trkpt lat="46.65493" lon="6.00579">
        <ele>703</ele>
        <time>2020-07-20T07:55:44.000Z</time>
      </trkpt>
      <trkpt lat="46.65475" lon="6.006">
        <ele>704</ele>
        <time>2020-07-20T07:55:44.000Z</time>
      </trkpt>
      <trkpt lat="46.65458" lon="6.00623">
        <ele>703</ele>
        <time>2020-07-20T07:55:44.000Z</time>
      </trkpt>
      <trkpt lat="46.65442" lon="6.00646">
        <ele>702</ele>
        <time>2020-07-20T07:55:44.000Z</time>
      </trkpt>
      <trkpt lat="46.65434" lon="6.00683">
        <ele>689</ele>
        <time>2020-07-20T07:57:52.000Z</time>
      </trkpt>
      <trkpt lat="46.65412" lon="6.00667">
        <ele>693</ele>
        <time>2020-07-20T08:00:00.000Z</time>
      </trkpt>
      <trkpt lat="46.654" lon="6.00662">
        <ele>698</ele>
        <time>2020-07-20T08:02:08.000Z</time>
      </trkpt>
      <trkpt lat="46.654" lon="6.00644">
        <ele>702</ele>
        <time>2020-07-20T08:02:08.000Z</time>
      </trkpt>
      <trkpt lat="46.65393" lon="6.00631">
        <ele>711</ele>
        <time>2020-07-20T08:03:53.000Z</time>
      </trkpt>
      <trkpt lat="46.65388" lon="6.00666">
        <ele>713</ele>
        <time>2020-07-20T08:04:16.000Z</time>
      </trkpt>
      <trkpt lat="46.65374" lon="6.00683">
        <ele>717</ele>
        <time>2020-07-20T08:05:18.000Z</time>
      </trkpt>
      <trkpt lat="46.65364" lon="6.00676">
        <ele>719</ele>
        <time>2020-07-20T08:06:24.000Z</time>
      </trkpt>
      <trkpt lat="46.65348" lon="6.00699">
        <ele>717</ele>
        <time>2020-07-20T08:06:24.000Z</time>
      </trkpt>
      <trkpt lat="46.65333" lon="6.00724">
        <ele>717</ele>
        <time>2020-07-20T08:06:24.000Z</time>
      </trkpt>
      <trkpt lat="46.6531" lon="6.00758">
        <ele>717</ele>
        <time>2020-07-20T08:06:24.000Z</time>
      </trkpt>
      <trkpt lat="46.65333" lon="6.00781">
        <ele>713</ele>
        <time>2020-07-20T08:08:32.000Z</time>
      </trkpt>
      <trkpt lat="46.65346" lon="6.00808">
        <ele>715</ele>
        <time>2020-07-20T08:10:40.000Z</time>
      </trkpt>
      <trkpt lat="46.65334" lon="6.00836">
        <ele>715</ele>
        <time>2020-07-20T08:10:40.000Z</time>
      </trkpt>
      <trkpt lat="46.65334" lon="6.0087">
        <ele>717</ele>
        <time>2020-07-20T08:10:40.000Z</time>
      </trkpt>
      <trkpt lat="46.65351" lon="6.00895">
        <ele>720</ele>
        <time>2020-07-20T08:10:40.000Z</time>
      </trkpt>
      <trkpt lat="46.65362" lon="6.00925">
        <ele>723</ele>
        <time>2020-07-20T08:10:40.000Z</time>
      </trkpt>
      <trkpt lat="46.65335" lon="6.00944">
        <ele>715</ele>
        <time>2020-07-20T08:12:48.000Z</time>
      </trkpt>
      <trkpt lat="46.65313" lon="6.00956">
        <ele>723</ele>
        <time>2020-07-20T08:12:48.000Z</time>
      </trkpt>
      <trkpt lat="46.6529" lon="6.00963">
        <ele>725</ele>
        <time>2020-07-20T08:12:48.000Z</time>
      </trkpt>
      <trkpt lat="46.65267" lon="6.00969">
        <ele>728</ele>
        <time>2020-07-20T08:12:48.000Z</time>
      </trkpt>
      <trkpt lat="46.65245" lon="6.00973">
        <ele>727</ele>
        <time>2020-07-20T08:14:56.000Z</time>
      </trkpt>
      <trkpt lat="46.65223" lon="6.00983">
        <ele>727</ele>
        <time>2020-07-20T08:14:56.000Z</time>
      </trkpt>
      <trkpt lat="46.65207" lon="6.01007">
        <ele>729</ele>
        <time>2020-07-20T08:14:56.000Z</time>
      </trkpt>
      <trkpt lat="46.65195" lon="6.01036">
        <ele>730</ele>
        <time>2020-07-20T08:14:56.000Z</time>
      </trkpt>
      <trkpt lat="46.65176" lon="6.01056">
        <ele>733</ele>
        <time>2020-07-20T08:14:56.000Z</time>
      </trkpt>
      <trkpt lat="46.65155" lon="6.01068">
        <ele>735</ele>
        <time>2020-07-20T08:17:04.000Z</time>
      </trkpt>
      <trkpt lat="46.65135" lon="6.01083">
        <ele>737</ele>
        <time>2020-07-20T08:17:04.000Z</time>
      </trkpt>
      <trkpt lat="46.65114" lon="6.01099">
        <ele>737</ele>
        <time>2020-07-20T08:17:04.000Z</time>
      </trkpt>
      <trkpt lat="46.65095" lon="6.01118">
        <ele>738</ele>
        <time>2020-07-20T08:17:04.000Z</time>
      </trkpt>
      <trkpt lat="46.65075" lon="6.01134">
        <ele>737</ele>
        <time>2020-07-20T08:17:04.000Z</time>
      </trkpt>
      <trkpt lat="46.65057" lon="6.01155">
        <ele>737</ele>
        <time>2020-07-20T08:17:04.000Z</time>
      </trkpt>
      <trkpt lat="46.65039" lon="6.01175">
        <ele>738</ele>
        <time>2020-07-20T08:19:12.000Z</time>
      </trkpt>
      <trkpt lat="46.65021" lon="6.01195">
        <ele>738</ele>
        <time>2020-07-20T08:19:12.000Z</time>
      </trkpt>
      <trkpt lat="46.65011" lon="6.01225">
        <ele>738</ele>
        <time>2020-07-20T08:19:12.000Z</time>
      </trkpt>
      <trkpt lat="46.65003" lon="6.01256">
        <ele>737</ele>
        <time>2020-07-20T08:19:12.000Z</time>
      </trkpt>
      <trkpt lat="46.64992" lon="6.01285">
        <ele>736</ele>
        <time>2020-07-20T08:19:12.000Z</time>
      </trkpt>
      <trkpt lat="46.64982" lon="6.01315">
        <ele>736</ele>
        <time>2020-07-20T08:19:12.000Z</time>
      </trkpt>
      <trkpt lat="46.6497" lon="6.01344">
        <ele>736</ele>
        <time>2020-07-20T08:21:20.000Z</time>
      </trkpt>
      <trkpt lat="46.64958" lon="6.01372">
        <ele>737</ele>
        <time>2020-07-20T08:21:20.000Z</time>
      </trkpt>
      <trkpt lat="46.64947" lon="6.014">
        <ele>737</ele>
        <time>2020-07-20T08:21:20.000Z</time>
      </trkpt>
      <trkpt lat="46.64939" lon="6.01431">
        <ele>738</ele>
        <time>2020-07-20T08:21:20.000Z</time>
      </trkpt>
      <trkpt lat="46.64927" lon="6.0146">
        <ele>740</ele>
        <time>2020-07-20T08:21:20.000Z</time>
      </trkpt>
      <trkpt lat="46.64919" lon="6.01492">
        <ele>741</ele>
        <time>2020-07-20T08:21:20.000Z</time>
      </trkpt>
      <trkpt lat="46.64909" lon="6.01521">
        <ele>742</ele>
        <time>2020-07-20T08:21:20.000Z</time>
      </trkpt>
      <trkpt lat="46.64896" lon="6.01549">
        <ele>744</ele>
        <time>2020-07-20T08:23:28.000Z</time>
      </trkpt>
      <trkpt lat="46.64886" lon="6.0158">
        <ele>745</ele>
        <time>2020-07-20T08:23:28.000Z</time>
      </trkpt>
      <trkpt lat="46.64875" lon="6.0161">
        <ele>745</ele>
        <time>2020-07-20T08:23:28.000Z</time>
      </trkpt>
      <trkpt lat="46.6482" lon="6.01738">
        <ele>752</ele>
        <time>2020-07-20T08:25:36.000Z</time>
      </trkpt>
      <trkpt lat="46.64815" lon="6.0181">
        <ele>757</ele>
        <time>2020-07-20T08:25:36.000Z</time>
      </trkpt>
      <trkpt lat="46.64827" lon="6.01838">
        <ele>761</ele>
        <time>2020-07-20T08:25:36.000Z</time>
      </trkpt>
      <trkpt lat="46.64834" lon="6.01871">
        <ele>764</ele>
        <time>2020-07-20T08:25:36.000Z</time>
      </trkpt>
      <trkpt lat="46.64832" lon="6.01907">
        <ele>765</ele>
        <time>2020-07-20T08:27:44.000Z</time>
      </trkpt>
      <trkpt lat="46.64828" lon="6.0194">
        <ele>769</ele>
        <time>2020-07-20T08:27:44.000Z</time>
      </trkpt>
      <trkpt lat="46.64807" lon="6.01925">
        <ele>773</ele>
        <time>2020-07-20T08:27:44.000Z</time>
      </trkpt>
      <trkpt lat="46.64785" lon="6.01933">
        <ele>776</ele>
        <time>2020-07-20T08:27:44.000Z</time>
      </trkpt>
      <trkpt lat="46.64766" lon="6.01953">
        <ele>779</ele>
        <time>2020-07-20T08:27:44.000Z</time>
      </trkpt>
      <trkpt lat="46.64746" lon="6.01969">
        <ele>782</ele>
        <time>2020-07-20T08:27:44.000Z</time>
      </trkpt>
      <trkpt lat="46.64725" lon="6.01982">
        <ele>786</ele>
        <time>2020-07-20T08:29:52.000Z</time>
      </trkpt>
      <trkpt lat="46.64702" lon="6.01989">
        <ele>789</ele>
        <time>2020-07-20T08:29:52.000Z</time>
      </trkpt>
      <trkpt lat="46.64685" lon="6.02014">
        <ele>791</ele>
        <time>2020-07-20T08:29:52.000Z</time>
      </trkpt>
      <trkpt lat="46.64674" lon="6.02047">
        <ele>794</ele>
        <time>2020-07-20T08:29:52.000Z</time>
      </trkpt>
      <trkpt lat="46.64658" lon="6.02022">
        <ele>797</ele>
        <time>2020-07-20T08:32:00.000Z</time>
      </trkpt>
      <trkpt lat="46.64725" lon="6.01909">
        <ele>793</ele>
        <time>2020-07-20T08:32:00.000Z</time>
      </trkpt>
      <trkpt lat="46.64725" lon="6.01875">
        <ele>801</ele>
        <time>2020-07-20T08:32:00.000Z</time>
      </trkpt>
      <trkpt lat="46.64698" lon="6.01876">
        <ele>805</ele>
        <time>2020-07-20T08:33:12.000Z</time>
      </trkpt>
      <trkpt lat="46.64662" lon="6.01913">
        <ele>815</ele>
        <time>2020-07-20T08:34:08.000Z</time>
      </trkpt>
      <trkpt lat="46.64642" lon="6.01932">
        <ele>820</ele>
        <time>2020-07-20T08:34:08.000Z</time>
      </trkpt>
      <trkpt lat="46.64623" lon="6.01952">
        <ele>821</ele>
        <time>2020-07-20T08:34:08.000Z</time>
      </trkpt>
      <trkpt lat="46.64601" lon="6.01955">
        <ele>824</ele>
        <time>2020-07-20T08:36:16.000Z</time>
      </trkpt>
      <trkpt lat="46.6458" lon="6.01972">
        <ele>825</ele>
        <time>2020-07-20T08:36:16.000Z</time>
      </trkpt>
      <trkpt lat="46.64557" lon="6.01976">
        <ele>829</ele>
        <time>2020-07-20T08:36:16.000Z</time>
      </trkpt>
      <trkpt lat="46.64535" lon="6.01992">
        <ele>830</ele>
        <time>2020-07-20T08:36:16.000Z</time>
      </trkpt>
      <trkpt lat="46.64513" lon="6.02004">
        <ele>832</ele>
        <time>2020-07-20T08:36:16.000Z</time>
      </trkpt>
      <trkpt lat="46.64464" lon="6.02032">
        <ele>836</ele>
        <time>2020-07-20T08:38:24.000Z</time>
      </trkpt>
      <trkpt lat="46.64475" lon="6.0198">
        <ele>839</ele>
        <time>2020-07-20T08:38:24.000Z</time>
      </trkpt>
      <trkpt lat="46.64458" lon="6.01957">
        <ele>842</ele>
        <time>2020-07-20T08:38:24.000Z</time>
      </trkpt>
      <trkpt lat="46.64435" lon="6.01958">
        <ele>841</ele>
        <time>2020-07-20T08:38:24.000Z</time>
      </trkpt>
      <trkpt lat="46.64412" lon="6.01953">
        <ele>839</ele>
        <time>2020-07-20T08:40:32.000Z</time>
      </trkpt>
      <trkpt lat="46.6439" lon="6.01952">
        <ele>836</ele>
        <time>2020-07-20T08:40:32.000Z</time>
      </trkpt>
      <trkpt lat="46.64372" lon="6.01932">
        <ele>829</ele>
        <time>2020-07-20T08:40:32.000Z</time>
      </trkpt>
      <trkpt lat="46.64352" lon="6.01914">
        <ele>827</ele>
        <time>2020-07-20T08:40:32.000Z</time>
      </trkpt>
      <trkpt lat="46.64329" lon="6.0191">
        <ele>830</ele>
        <time>2020-07-20T08:40:32.000Z</time>
      </trkpt>
      <trkpt lat="46.64307" lon="6.01917">
        <ele>833</ele>
        <time>2020-07-20T08:42:40.000Z</time>
      </trkpt>
      <trkpt lat="46.64284" lon="6.01914">
        <ele>836</ele>
        <time>2020-07-20T08:42:40.000Z</time>
      </trkpt>
      <trkpt lat="46.64262" lon="6.01903">
        <ele>841</ele>
        <time>2020-07-20T08:42:40.000Z</time>
      </trkpt>
      <trkpt lat="46.64263" lon="6.0187">
        <ele>843</ele>
        <time>2020-07-20T08:42:40.000Z</time>
      </trkpt>
      <trkpt lat="46.64265" lon="6.01837">
        <ele>846</ele>
        <time>2020-07-20T08:42:40.000Z</time>
      </trkpt>
      <trkpt lat="46.64258" lon="6.01805">
        <ele>847</ele>
        <time>2020-07-20T08:44:48.000Z</time>
      </trkpt>
      <trkpt lat="46.64256" lon="6.01772">
        <ele>854</ele>
        <time>2020-07-20T08:44:48.000Z</time>
      </trkpt>
      <trkpt lat="46.64254" lon="6.01738">
        <ele>856</ele>
        <time>2020-07-20T08:44:48.000Z</time>
      </trkpt>
      <trkpt lat="46.64259" lon="6.01705">
        <ele>859</ele>
        <time>2020-07-20T08:44:48.000Z</time>
      </trkpt>
      <trkpt lat="46.6425" lon="6.01674">
        <ele>860</ele>
        <time>2020-07-20T08:44:48.000Z</time>
      </trkpt>
      <trkpt lat="46.6425" lon="6.01641">
        <ele>862</ele>
        <time>2020-07-20T08:46:56.000Z</time>
      </trkpt>
      <trkpt lat="46.64247" lon="6.01609">
        <ele>867</ele>
        <time>2020-07-20T08:46:56.000Z</time>
      </trkpt>
      <trkpt lat="46.64239" lon="6.01578">
        <ele>866</ele>
        <time>2020-07-20T08:46:56.000Z</time>
      </trkpt>
      <trkpt lat="46.64237" lon="6.01545">
        <ele>866</ele>
        <time>2020-07-20T08:46:56.000Z</time>
      </trkpt>
      <trkpt lat="46.64238" lon="6.01511">
        <ele>864</ele>
        <time>2020-07-20T08:46:56.000Z</time>
      </trkpt>
      <trkpt lat="46.64241" lon="6.01477">
        <ele>863</ele>
        <time>2020-07-20T08:49:04.000Z</time>
      </trkpt>
      <trkpt lat="46.64241" lon="6.0144">
        <ele>862</ele>
        <time>2020-07-20T08:49:04.000Z</time>
      </trkpt>
      <trkpt lat="46.64236" lon="6.01408">
        <ele>862</ele>
        <time>2020-07-20T08:49:04.000Z</time>
      </trkpt>
      <trkpt lat="46.64218" lon="6.01387">
        <ele>862</ele>
        <time>2020-07-20T08:49:04.000Z</time>
      </trkpt>
      <trkpt lat="46.64209" lon="6.01357">
        <ele>867</ele>
        <time>2020-07-20T08:49:04.000Z</time>
      </trkpt>
      <trkpt lat="46.64212" lon="6.01325">
        <ele>868</ele>
        <time>2020-07-20T08:49:04.000Z</time>
      </trkpt>
      <trkpt lat="46.64214" lon="6.0129">
        <ele>869</ele>
        <time>2020-07-20T08:51:12.000Z</time>
      </trkpt>
      <trkpt lat="46.64213" lon="6.01257">
        <ele>868</ele>
        <time>2020-07-20T08:51:12.000Z</time>
      </trkpt>
      <trkpt lat="46.64197" lon="6.01233">
        <ele>871</ele>
        <time>2020-07-20T08:51:12.000Z</time>
      </trkpt>
      <trkpt lat="46.6419" lon="6.012">
        <ele>866</ele>
        <time>2020-07-20T08:51:12.000Z</time>
      </trkpt>
      <trkpt lat="46.64173" lon="6.01178">
        <ele>863</ele>
        <time>2020-07-20T08:51:12.000Z</time>
      </trkpt>
      <trkpt lat="46.64179" lon="6.01145">
        <ele>867</ele>
        <time>2020-07-20T08:53:20.000Z</time>
      </trkpt>
      <trkpt lat="46.64172" lon="6.0111">
        <ele>867</ele>
        <time>2020-07-20T08:53:20.000Z</time>
      </trkpt>
      <trkpt lat="46.64152" lon="6.01095">
        <ele>870</ele>
        <time>2020-07-20T08:53:20.000Z</time>
      </trkpt>
      <trkpt lat="46.64129" lon="6.01105">
        <ele>871</ele>
        <time>2020-07-20T08:53:20.000Z</time>
      </trkpt>
      <trkpt lat="46.64109" lon="6.0112">
        <ele>874</ele>
        <time>2020-07-20T08:53:20.000Z</time>
      </trkpt>
      <trkpt lat="46.64089" lon="6.01138">
        <ele>874</ele>
        <time>2020-07-20T08:53:20.000Z</time>
      </trkpt>
      <trkpt lat="46.6407" lon="6.01158">
        <ele>875</ele>
        <time>2020-07-20T08:55:28.000Z</time>
      </trkpt>
      <trkpt lat="46.64052" lon="6.01177">
        <ele>875</ele>
        <time>2020-07-20T08:55:28.000Z</time>
      </trkpt>
      <trkpt lat="46.64029" lon="6.01184">
        <ele>872</ele>
        <time>2020-07-20T08:55:28.000Z</time>
      </trkpt>
      <trkpt lat="46.64005" lon="6.01194">
        <ele>871</ele>
        <time>2020-07-20T08:55:28.000Z</time>
      </trkpt>
      <trkpt lat="46.63986" lon="6.01211">
        <ele>873</ele>
        <time>2020-07-20T08:55:28.000Z</time>
      </trkpt>
      <trkpt lat="46.63964" lon="6.01218">
        <ele>872</ele>
        <time>2020-07-20T08:55:28.000Z</time>
      </trkpt>
      <trkpt lat="46.63941" lon="6.01225">
        <ele>873</ele>
        <time>2020-07-20T08:57:36.000Z</time>
      </trkpt>
      <trkpt lat="46.63925" lon="6.01251">
        <ele>874</ele>
        <time>2020-07-20T08:57:36.000Z</time>
      </trkpt>
      <trkpt lat="46.63903" lon="6.0126">
        <ele>876</ele>
        <time>2020-07-20T08:57:36.000Z</time>
      </trkpt>
      <trkpt lat="46.6388" lon="6.01264">
        <ele>879</ele>
        <time>2020-07-20T08:57:36.000Z</time>
      </trkpt>
      <trkpt lat="46.63857" lon="6.01265">
        <ele>877</ele>
        <time>2020-07-20T08:57:36.000Z</time>
      </trkpt>
      <trkpt lat="46.63835" lon="6.01253">
        <ele>877</ele>
        <time>2020-07-20T08:59:44.000Z</time>
      </trkpt>
      <trkpt lat="46.63812" lon="6.01252">
        <ele>876</ele>
        <time>2020-07-20T08:59:44.000Z</time>
      </trkpt>
      <trkpt lat="46.63793" lon="6.01272">
        <ele>877</ele>
        <time>2020-07-20T08:59:44.000Z</time>
      </trkpt>
      <trkpt lat="46.63772" lon="6.01288">
        <ele>879</ele>
        <time>2020-07-20T08:59:44.000Z</time>
      </trkpt>
      <trkpt lat="46.63759" lon="6.01261">
        <ele>882</ele>
        <time>2020-07-20T08:59:44.000Z</time>
      </trkpt>
      <trkpt lat="46.6375" lon="6.01231">
        <ele>883</ele>
        <time>2020-07-20T08:59:44.000Z</time>
      </trkpt>
      <trkpt lat="46.63732" lon="6.01209">
        <ele>885</ele>
        <time>2020-07-20T09:01:52.000Z</time>
      </trkpt>
      <trkpt lat="46.63709" lon="6.01216">
        <ele>886</ele>
        <time>2020-07-20T09:01:52.000Z</time>
      </trkpt>
      <trkpt lat="46.63687" lon="6.01226">
        <ele>886</ele>
        <time>2020-07-20T09:01:52.000Z</time>
      </trkpt>
      <trkpt lat="46.63665" lon="6.0123">
        <ele>884</ele>
        <time>2020-07-20T09:01:52.000Z</time>
      </trkpt>
      <trkpt lat="46.63644" lon="6.01216">
        <ele>881</ele>
        <time>2020-07-20T09:01:52.000Z</time>
      </trkpt>
      <trkpt lat="46.63622" lon="6.01207">
        <ele>882</ele>
        <time>2020-07-20T09:01:52.000Z</time>
      </trkpt>
      <trkpt lat="46.63599" lon="6.01205">
        <ele>883</ele>
        <time>2020-07-20T09:04:00.000Z</time>
      </trkpt>
      <trkpt lat="46.63576" lon="6.01206">
        <ele>883</ele>
        <time>2020-07-20T09:04:00.000Z</time>
      </trkpt>
      <trkpt lat="46.63553" lon="6.01208">
        <ele>882</ele>
        <time>2020-07-20T09:04:00.000Z</time>
      </trkpt>
      <trkpt lat="46.63531" lon="6.01202">
        <ele>883</ele>
        <time>2020-07-20T09:06:08.000Z</time>
      </trkpt>
      <trkpt lat="46.63511" lon="6.01185">
        <ele>886</ele>
        <time>2020-07-20T09:06:08.000Z</time>
      </trkpt>
      <trkpt lat="46.63496" lon="6.01161">
        <ele>888</ele>
        <time>2020-07-20T09:08:16.000Z</time>
      </trkpt>
      <trkpt lat="46.63493" lon="6.01128">
        <ele>890</ele>
        <time>2020-07-20T09:08:16.000Z</time>
      </trkpt>
      <trkpt lat="46.63485" lon="6.01097">
        <ele>891</ele>
        <time>2020-07-20T09:08:16.000Z</time>
      </trkpt>
      <trkpt lat="46.6348" lon="6.01065">
        <ele>892</ele>
        <time>2020-07-20T09:08:16.000Z</time>
      </trkpt>
      <trkpt lat="46.63461" lon="6.01043">
        <ele>892</ele>
        <time>2020-07-20T09:08:16.000Z</time>
      </trkpt>
      <trkpt lat="46.6344" lon="6.01028">
        <ele>891</ele>
        <time>2020-07-20T09:08:16.000Z</time>
      </trkpt>
      <trkpt lat="46.6342" lon="6.01013">
        <ele>889</ele>
        <time>2020-07-20T09:10:24.000Z</time>
      </trkpt>
      <trkpt lat="46.63404" lon="6.00989">
        <ele>889</ele>
        <time>2020-07-20T09:10:24.000Z</time>
      </trkpt>
      <trkpt lat="46.63387" lon="6.00966">
        <ele>887</ele>
        <time>2020-07-20T09:10:24.000Z</time>
      </trkpt>
      <trkpt lat="46.63376" lon="6.00936">
        <ele>888</ele>
        <time>2020-07-20T09:10:24.000Z</time>
      </trkpt>
      <trkpt lat="46.63366" lon="6.00906">
        <ele>890</ele>
        <time>2020-07-20T09:10:24.000Z</time>
      </trkpt>
      <trkpt lat="46.63353" lon="6.00877">
        <ele>890</ele>
        <time>2020-07-20T09:14:40.000Z</time>
      </trkpt>
      <trkpt lat="46.63338" lon="6.00853">
        <ele>890</ele>
        <time>2020-07-20T09:14:40.000Z</time>
      </trkpt>
      <trkpt lat="46.63324" lon="6.00825">
        <ele>890</ele>
        <time>2020-07-20T09:14:40.000Z</time>
      </trkpt>
      <trkpt lat="46.63306" lon="6.00805">
        <ele>885</ele>
        <time>2020-07-20T09:14:40.000Z</time>
      </trkpt>
      <trkpt lat="46.63287" lon="6.00787">
        <ele>885</ele>
        <time>2020-07-20T09:14:40.000Z</time>
      </trkpt>
      <trkpt lat="46.63267" lon="6.00771">
        <ele>885</ele>
        <time>2020-07-20T09:14:40.000Z</time>
      </trkpt>
      <trkpt lat="46.63252" lon="6.00745">
        <ele>884</ele>
        <time>2020-07-20T09:16:48.000Z</time>
      </trkpt>
      <trkpt lat="46.63236" lon="6.00721">
        <ele>883</ele>
        <time>2020-07-20T09:16:48.000Z</time>
      </trkpt>
      <trkpt lat="46.6322" lon="6.00698">
        <ele>882</ele>
        <time>2020-07-20T09:16:48.000Z</time>
      </trkpt>
      <trkpt lat="46.63198" lon="6.00706">
        <ele>881</ele>
        <time>2020-07-20T09:16:48.000Z</time>
      </trkpt>
      <trkpt lat="46.63177" lon="6.00721">
        <ele>881</ele>
        <time>2020-07-20T09:16:48.000Z</time>
      </trkpt>
      <trkpt lat="46.63154" lon="6.00725">
        <ele>883</ele>
        <time>2020-07-20T09:16:48.000Z</time>
      </trkpt>
      <trkpt lat="46.63132" lon="6.00715">
        <ele>882</ele>
        <time>2020-07-20T09:16:48.000Z</time>
      </trkpt>
      <trkpt lat="46.63113" lon="6.00695">
        <ele>882</ele>
        <time>2020-07-20T09:18:56.000Z</time>
      </trkpt>
      <trkpt lat="46.63099" lon="6.00669">
        <ele>882</ele>
        <time>2020-07-20T09:18:56.000Z</time>
      </trkpt>
      <trkpt lat="46.63087" lon="6.0064">
        <ele>883</ele>
        <time>2020-07-20T09:18:56.000Z</time>
      </trkpt>
      <trkpt lat="46.63073" lon="6.00614">
        <ele>882</ele>
        <time>2020-07-20T09:18:56.000Z</time>
      </trkpt>
      <trkpt lat="46.63055" lon="6.00591">
        <ele>883</ele>
        <time>2020-07-20T09:18:56.000Z</time>
      </trkpt>
      <trkpt lat="46.63032" lon="6.00596">
        <ele>882</ele>
        <time>2020-07-20T09:18:56.000Z</time>
      </trkpt>
      <trkpt lat="46.63013" lon="6.00614">
        <ele>884</ele>
        <time>2020-07-20T09:18:56.000Z</time>
      </trkpt>
      <trkpt lat="46.62995" lon="6.00636">
        <ele>885</ele>
        <time>2020-07-20T09:21:04.000Z</time>
      </trkpt>
      <trkpt lat="46.62977" lon="6.00658">
        <ele>886</ele>
        <time>2020-07-20T09:21:04.000Z</time>
      </trkpt>
      <trkpt lat="46.62961" lon="6.00684">
        <ele>887</ele>
        <time>2020-07-20T09:21:04.000Z</time>
      </trkpt>
      <trkpt lat="46.62948" lon="6.00711">
        <ele>887</ele>
        <time>2020-07-20T09:21:04.000Z</time>
      </trkpt>
      <trkpt lat="46.62927" lon="6.00725">
        <ele>887</ele>
        <time>2020-07-20T09:21:04.000Z</time>
      </trkpt>
      <trkpt lat="46.62903" lon="6.00725">
        <ele>888</ele>
        <time>2020-07-20T09:21:04.000Z</time>
      </trkpt>
      <trkpt lat="46.6288" lon="6.00726">
        <ele>889</ele>
        <time>2020-07-20T09:23:12.000Z</time>
      </trkpt>
      <trkpt lat="46.62858" lon="6.00727">
        <ele>889</ele>
        <time>2020-07-20T09:23:12.000Z</time>
      </trkpt>
      <trkpt lat="46.62842" lon="6.0075">
        <ele>889</ele>
        <time>2020-07-20T09:23:12.000Z</time>
      </trkpt>
      <trkpt lat="46.62854" lon="6.00779">
        <ele>888</ele>
        <time>2020-07-20T09:23:12.000Z</time>
      </trkpt>
      <trkpt lat="46.62856" lon="6.00812">
        <ele>887</ele>
        <time>2020-07-20T09:23:12.000Z</time>
      </trkpt>
      <trkpt lat="46.62862" lon="6.00844">
        <ele>885</ele>
        <time>2020-07-20T09:23:12.000Z</time>
      </trkpt>
      <trkpt lat="46.62862" lon="6.00877">
        <ele>884</ele>
        <time>2020-07-20T09:23:12.000Z</time>
      </trkpt>
      <trkpt lat="46.62857" lon="6.00909">
        <ele>884</ele>
        <time>2020-07-20T09:25:20.000Z</time>
      </trkpt>
      <trkpt lat="46.62857" lon="6.00943">
        <ele>884</ele>
        <time>2020-07-20T09:25:20.000Z</time>
      </trkpt>
      <trkpt lat="46.62856" lon="6.00977">
        <ele>882</ele>
        <time>2020-07-20T09:25:20.000Z</time>
      </trkpt>
      <trkpt lat="46.62853" lon="6.0101">
        <ele>881</ele>
        <time>2020-07-20T09:25:20.000Z</time>
      </trkpt>
      <trkpt lat="46.62851" lon="6.01043">
        <ele>881</ele>
        <time>2020-07-20T09:25:20.000Z</time>
      </trkpt>
      <trkpt lat="46.62851" lon="6.01076">
        <ele>882</ele>
        <time>2020-07-20T09:25:20.000Z</time>
      </trkpt>
      <trkpt lat="46.6285" lon="6.01109">
        <ele>881</ele>
        <time>2020-07-20T09:27:28.000Z</time>
      </trkpt>
      <trkpt lat="46.62846" lon="6.01142">
        <ele>880</ele>
        <time>2020-07-20T09:27:28.000Z</time>
      </trkpt>
      <trkpt lat="46.62841" lon="6.01174">
        <ele>880</ele>
        <time>2020-07-20T09:27:28.000Z</time>
      </trkpt>
      <trkpt lat="46.62833" lon="6.01205">
        <ele>880</ele>
        <time>2020-07-20T09:27:28.000Z</time>
      </trkpt>
      <trkpt lat="46.62826" lon="6.01236">
        <ele>881</ele>
        <time>2020-07-20T09:27:28.000Z</time>
      </trkpt>
      <trkpt lat="46.62818" lon="6.01267">
        <ele>882</ele>
        <time>2020-07-20T09:27:28.000Z</time>
      </trkpt>
      <trkpt lat="46.62808" lon="6.01297">
        <ele>882</ele>
        <time>2020-07-20T09:27:28.000Z</time>
      </trkpt>
      <trkpt lat="46.62804" lon="6.01331">
        <ele>884</ele>
        <time>2020-07-20T09:29:36.000Z</time>
      </trkpt>
      <trkpt lat="46.628" lon="6.01363">
        <ele>884</ele>
        <time>2020-07-20T09:29:36.000Z</time>
      </trkpt>
      <trkpt lat="46.62796" lon="6.01396">
        <ele>885</ele>
        <time>2020-07-20T09:29:36.000Z</time>
      </trkpt>
      <trkpt lat="46.62793" lon="6.01428">
        <ele>887</ele>
        <time>2020-07-20T09:29:36.000Z</time>
      </trkpt>
      <trkpt lat="46.62793" lon="6.01462">
        <ele>889</ele>
        <time>2020-07-20T09:29:36.000Z</time>
      </trkpt>
      <trkpt lat="46.62799" lon="6.01495">
        <ele>888</ele>
        <time>2020-07-20T09:29:36.000Z</time>
      </trkpt>
      <trkpt lat="46.62806" lon="6.01527">
        <ele>888</ele>
        <time>2020-07-20T09:29:36.000Z</time>
      </trkpt>
      <trkpt lat="46.62809" lon="6.0156">
        <ele>890</ele>
        <time>2020-07-20T09:31:44.000Z</time>
      </trkpt>
      <trkpt lat="46.62811" lon="6.01593">
        <ele>890</ele>
        <time>2020-07-20T09:31:44.000Z</time>
      </trkpt>
      <trkpt lat="46.62812" lon="6.01626">
        <ele>890</ele>
        <time>2020-07-20T09:31:44.000Z</time>
      </trkpt>
      <trkpt lat="46.62821" lon="6.01657">
        <ele>890</ele>
        <time>2020-07-20T09:31:44.000Z</time>
      </trkpt>
      <trkpt lat="46.62834" lon="6.01684">
        <ele>889</ele>
        <time>2020-07-20T09:31:44.000Z</time>
      </trkpt>
      <trkpt lat="46.62848" lon="6.01709">
        <ele>889</ele>
        <time>2020-07-20T09:31:44.000Z</time>
      </trkpt>
      <trkpt lat="46.62862" lon="6.01735">
        <ele>889</ele>
        <time>2020-07-20T09:31:44.000Z</time>
      </trkpt>
      <trkpt lat="46.62881" lon="6.01755">
        <ele>889</ele>
        <time>2020-07-20T09:33:52.000Z</time>
      </trkpt>
      <trkpt lat="46.629" lon="6.01774">
        <ele>890</ele>
        <time>2020-07-20T09:33:52.000Z</time>
      </trkpt>
      <trkpt lat="46.6292" lon="6.0179">
        <ele>890</ele>
        <time>2020-07-20T09:33:52.000Z</time>
      </trkpt>
      <trkpt lat="46.62935" lon="6.01815">
        <ele>890</ele>
        <time>2020-07-20T09:33:52.000Z</time>
      </trkpt>
      <trkpt lat="46.62948" lon="6.01842">
        <ele>889</ele>
        <time>2020-07-20T09:33:52.000Z</time>
      </trkpt>
      <trkpt lat="46.62956" lon="6.01874">
        <ele>889</ele>
        <time>2020-07-20T09:33:52.000Z</time>
      </trkpt>
      <trkpt lat="46.62966" lon="6.01905">
        <ele>887</ele>
        <time>2020-07-20T09:33:52.000Z</time>
      </trkpt>
      <trkpt lat="46.62978" lon="6.01934">
        <ele>886</ele>
        <time>2020-07-20T09:36:00.000Z</time>
      </trkpt>
      <trkpt lat="46.62992" lon="6.01962">
        <ele>885</ele>
        <time>2020-07-20T09:36:00.000Z</time>
      </trkpt>
      <trkpt lat="46.63009" lon="6.01985">
        <ele>883</ele>
        <time>2020-07-20T09:36:00.000Z</time>
      </trkpt>
      <trkpt lat="46.63024" lon="6.0201">
        <ele>881</ele>
        <time>2020-07-20T09:36:00.000Z</time>
      </trkpt>
      <trkpt lat="46.63038" lon="6.02037">
        <ele>880</ele>
        <time>2020-07-20T09:36:00.000Z</time>
      </trkpt>
      <trkpt lat="46.63053" lon="6.02061">
        <ele>878</ele>
        <time>2020-07-20T09:36:00.000Z</time>
      </trkpt>
      <trkpt lat="46.63072" lon="6.0208">
        <ele>875</ele>
        <time>2020-07-20T09:36:00.000Z</time>
      </trkpt>
      <trkpt lat="46.63089" lon="6.02103">
        <ele>871</ele>
        <time>2020-07-20T09:38:08.000Z</time>
      </trkpt>
      <trkpt lat="46.6311" lon="6.0212">
        <ele>868</ele>
        <time>2020-07-20T09:38:08.000Z</time>
      </trkpt>
      <trkpt lat="46.6313" lon="6.02135">
        <ele>866</ele>
        <time>2020-07-20T09:38:08.000Z</time>
      </trkpt>
      <trkpt lat="46.63136" lon="6.02167">
        <ele>862</ele>
        <time>2020-07-20T09:38:08.000Z</time>
      </trkpt>
      <trkpt lat="46.63139" lon="6.02202">
        <ele>860</ele>
        <time>2020-07-20T09:38:08.000Z</time>
      </trkpt>
      <trkpt lat="46.63149" lon="6.02231">
        <ele>856</ele>
        <time>2020-07-20T09:38:08.000Z</time>
      </trkpt>
      <trkpt lat="46.63165" lon="6.02257">
        <ele>854</ele>
        <time>2020-07-20T09:40:16.000Z</time>
      </trkpt>
      <trkpt lat="46.6318" lon="6.02282">
        <ele>851</ele>
        <time>2020-07-20T09:40:16.000Z</time>
      </trkpt>
      <trkpt lat="46.63193" lon="6.02309">
        <ele>848</ele>
        <time>2020-07-20T09:40:16.000Z</time>
      </trkpt>
      <trkpt lat="46.63197" lon="6.02342">
        <ele>846</ele>
        <time>2020-07-20T09:40:16.000Z</time>
      </trkpt>
      <trkpt lat="46.632" lon="6.02375">
        <ele>844</ele>
        <time>2020-07-20T09:40:16.000Z</time>
      </trkpt>
      <trkpt lat="46.63201" lon="6.0241">
        <ele>840</ele>
        <time>2020-07-20T09:40:16.000Z</time>
      </trkpt>
      <trkpt lat="46.63205" lon="6.02443">
        <ele>838</ele>
        <time>2020-07-20T09:40:16.000Z</time>
      </trkpt>
      <trkpt lat="46.63209" lon="6.02476">
        <ele>835</ele>
        <time>2020-07-20T09:42:24.000Z</time>
      </trkpt>
      <trkpt lat="46.63214" lon="6.0251">
        <ele>832</ele>
        <time>2020-07-20T09:42:24.000Z</time>
      </trkpt>
      <trkpt lat="46.63222" lon="6.02541">
        <ele>830</ele>
        <time>2020-07-20T09:42:24.000Z</time>
      </trkpt>
      <trkpt lat="46.63233" lon="6.02571">
        <ele>829</ele>
        <time>2020-07-20T09:42:24.000Z</time>
      </trkpt>
      <trkpt lat="46.63252" lon="6.02588">
        <ele>828</ele>
        <time>2020-07-20T09:42:24.000Z</time>
      </trkpt>
      <trkpt lat="46.6327" lon="6.0261">
        <ele>827</ele>
        <time>2020-07-20T09:42:24.000Z</time>
      </trkpt>
      <trkpt lat="46.63282" lon="6.02639">
        <ele>826</ele>
        <time>2020-07-20T09:42:24.000Z</time>
      </trkpt>
      <trkpt lat="46.63297" lon="6.02664">
        <ele>826</ele>
        <time>2020-07-20T09:44:32.000Z</time>
      </trkpt>
      <trkpt lat="46.63315" lon="6.02685">
        <ele>824</ele>
        <time>2020-07-20T09:44:32.000Z</time>
      </trkpt>
      <trkpt lat="46.63337" lon="6.02696">
        <ele>823</ele>
        <time>2020-07-20T09:44:32.000Z</time>
      </trkpt>
      <trkpt lat="46.63357" lon="6.02714">
        <ele>819</ele>
        <time>2020-07-20T09:44:32.000Z</time>
      </trkpt>
      <trkpt lat="46.63376" lon="6.02732">
        <ele>816</ele>
        <time>2020-07-20T09:44:32.000Z</time>
      </trkpt>
      <trkpt lat="46.63397" lon="6.02745">
        <ele>814</ele>
        <time>2020-07-20T09:46:40.000Z</time>
      </trkpt>
      <trkpt lat="46.63419" lon="6.02758">
        <ele>811</ele>
        <time>2020-07-20T09:46:40.000Z</time>
      </trkpt>
      <trkpt lat="46.6344" lon="6.02767">
        <ele>810</ele>
        <time>2020-07-20T09:46:40.000Z</time>
      </trkpt>
      <trkpt lat="46.63461" lon="6.02778">
        <ele>808</ele>
        <time>2020-07-20T09:46:40.000Z</time>
      </trkpt>
      <trkpt lat="46.63483" lon="6.02788">
        <ele>806</ele>
        <time>2020-07-20T09:46:40.000Z</time>
      </trkpt>
      <trkpt lat="46.63505" lon="6.02799">
        <ele>804</ele>
        <time>2020-07-20T09:46:40.000Z</time>
      </trkpt>
      <trkpt lat="46.63526" lon="6.02812">
        <ele>803</ele>
        <time>2020-07-20T09:46:40.000Z</time>
      </trkpt>
      <trkpt lat="46.63546" lon="6.02832">
        <ele>802</ele>
        <time>2020-07-20T09:48:48.000Z</time>
      </trkpt>
      <trkpt lat="46.63567" lon="6.02846">
        <ele>802</ele>
        <time>2020-07-20T09:48:48.000Z</time>
      </trkpt>
      <trkpt lat="46.63587" lon="6.02863">
        <ele>802</ele>
        <time>2020-07-20T09:48:48.000Z</time>
      </trkpt>
      <trkpt lat="46.6361" lon="6.0287">
        <ele>801</ele>
        <time>2020-07-20T09:48:48.000Z</time>
      </trkpt>
      <trkpt lat="46.63632" lon="6.02863">
        <ele>798</ele>
        <time>2020-07-20T09:48:48.000Z</time>
      </trkpt>
      <trkpt lat="46.63647" lon="6.02889">
        <ele>797</ele>
        <time>2020-07-20T09:48:48.000Z</time>
      </trkpt>
      <trkpt lat="46.63656" lon="6.0292">
        <ele>797</ele>
        <time>2020-07-20T09:50:56.000Z</time>
      </trkpt>
      <trkpt lat="46.63665" lon="6.02952">
        <ele>796</ele>
        <time>2020-07-20T09:50:56.000Z</time>
      </trkpt>
      <trkpt lat="46.63674" lon="6.02983">
        <ele>793</ele>
        <time>2020-07-20T09:50:56.000Z</time>
      </trkpt>
      <trkpt lat="46.6368" lon="6.03014">
        <ele>793</ele>
        <time>2020-07-20T09:50:56.000Z</time>
      </trkpt>
      <trkpt lat="46.63698" lon="6.03033">
        <ele>792</ele>
        <time>2020-07-20T09:50:56.000Z</time>
      </trkpt>
      <trkpt lat="46.63721" lon="6.0304">
        <ele>792</ele>
        <time>2020-07-20T09:50:56.000Z</time>
      </trkpt>
      <trkpt lat="46.63743" lon="6.03043">
        <ele>793</ele>
        <time>2020-07-20T09:53:04.000Z</time>
      </trkpt>
      <trkpt lat="46.63766" lon="6.0304">
        <ele>794</ele>
        <time>2020-07-20T09:53:04.000Z</time>
      </trkpt>
      <trkpt lat="46.6379" lon="6.03037">
        <ele>794</ele>
        <time>2020-07-20T09:53:04.000Z</time>
      </trkpt>
      <trkpt lat="46.63813" lon="6.03034">
        <ele>795</ele>
        <time>2020-07-20T09:53:04.000Z</time>
      </trkpt>
      <trkpt lat="46.63836" lon="6.03032">
        <ele>795</ele>
        <time>2020-07-20T09:53:04.000Z</time>
      </trkpt>
      <trkpt lat="46.63858" lon="6.03033">
        <ele>795</ele>
        <time>2020-07-20T09:53:04.000Z</time>
      </trkpt>
      <trkpt lat="46.63881" lon="6.0303">
        <ele>794</ele>
        <time>2020-07-20T09:55:12.000Z</time>
      </trkpt>
      <trkpt lat="46.63904" lon="6.03026">
        <ele>794</ele>
        <time>2020-07-20T09:55:12.000Z</time>
      </trkpt>
      <trkpt lat="46.63927" lon="6.03023">
        <ele>787</ele>
        <time>2020-07-20T09:55:12.000Z</time>
      </trkpt>
      <trkpt lat="46.6395" lon="6.03013">
        <ele>780</ele>
        <time>2020-07-20T09:55:12.000Z</time>
      </trkpt>
      <trkpt lat="46.6397" lon="6.03005">
        <ele>789</ele>
        <time>2020-07-20T09:55:12.000Z</time>
      </trkpt>
      <trkpt lat="46.63972" lon="6.0304">
        <ele>785</ele>
        <time>2020-07-20T09:57:20.000Z</time>
      </trkpt>
      <trkpt lat="46.63959" lon="6.03053">
        <ele>781</ele>
        <time>2020-07-20T09:57:20.000Z</time>
      </trkpt>
      <trkpt lat="46.63939" lon="6.03068">
        <ele>780</ele>
        <time>2020-07-20T09:59:28.000Z</time>
      </trkpt>
      <trkpt lat="46.63939" lon="6.03101">
        <ele>780</ele>
        <time>2020-07-20T10:25:04.000Z</time>
      </trkpt>
      <trkpt lat="46.6396" lon="6.03087">
        <ele>781</ele>
        <time>2020-07-20T10:35:44.000Z</time>
      </trkpt>
      <trkpt lat="46.63978" lon="6.03066">
        <ele>785</ele>
        <time>2020-07-20T10:37:52.000Z</time>
      </trkpt>
      <trkpt lat="46.63978" lon="6.03034">
        <ele>788</ele>
        <time>2020-07-20T10:37:52.000Z</time>
      </trkpt>
      <trkpt lat="46.63978" lon="6.03004">
        <ele>794</ele>
        <time>2020-07-20T10:37:52.000Z</time>
      </trkpt>
      <trkpt lat="46.6401" lon="6.02989">
        <ele>794</ele>
        <time>2020-07-20T10:37:52.000Z</time>
      </trkpt>
      <trkpt lat="46.64027" lon="6.02968">
        <ele>793</ele>
        <time>2020-07-20T10:40:00.000Z</time>
      </trkpt>
      <trkpt lat="46.64045" lon="6.02946">
        <ele>794</ele>
        <time>2020-07-20T10:40:00.000Z</time>
      </trkpt>
      <trkpt lat="46.64054" lon="6.02915">
        <ele>792</ele>
        <time>2020-07-20T10:40:00.000Z</time>
      </trkpt>
      <trkpt lat="46.64057" lon="6.02882">
        <ele>792</ele>
        <time>2020-07-20T10:40:00.000Z</time>
      </trkpt>
      <trkpt lat="46.64048" lon="6.02852">
        <ele>794</ele>
        <time>2020-07-20T10:40:00.000Z</time>
      </trkpt>
      <trkpt lat="46.64065" lon="6.02829">
        <ele>792</ele>
        <time>2020-07-20T10:42:08.000Z</time>
      </trkpt>
      <trkpt lat="46.64078" lon="6.02802">
        <ele>793</ele>
        <time>2020-07-20T10:42:08.000Z</time>
      </trkpt>
      <trkpt lat="46.64096" lon="6.02781">
        <ele>797</ele>
        <time>2020-07-20T10:42:08.000Z</time>
      </trkpt>
      <trkpt lat="46.64116" lon="6.02763">
        <ele>794</ele>
        <time>2020-07-20T10:42:08.000Z</time>
      </trkpt>
      <trkpt lat="46.64137" lon="6.0275">
        <ele>794</ele>
        <time>2020-07-20T10:42:08.000Z</time>
      </trkpt>
      <trkpt lat="46.6416" lon="6.02746">
        <ele>794</ele>
        <time>2020-07-20T10:46:24.000Z</time>
      </trkpt>
      <trkpt lat="46.64182" lon="6.02738">
        <ele>789</ele>
        <time>2020-07-20T10:46:24.000Z</time>
      </trkpt>
      <trkpt lat="46.64205" lon="6.02736">
        <ele>787</ele>
        <time>2020-07-20T10:46:24.000Z</time>
      </trkpt>
      <trkpt lat="46.64227" lon="6.02733">
        <ele>789</ele>
        <time>2020-07-20T10:46:24.000Z</time>
      </trkpt>
      <trkpt lat="46.6425" lon="6.02724">
        <ele>788</ele>
        <time>2020-07-20T10:46:24.000Z</time>
      </trkpt>
      <trkpt lat="46.64271" lon="6.02712">
        <ele>784</ele>
        <time>2020-07-20T10:46:24.000Z</time>
      </trkpt>
      <trkpt lat="46.64292" lon="6.027">
        <ele>784</ele>
        <time>2020-07-20T10:46:24.000Z</time>
      </trkpt>
      <trkpt lat="46.64315" lon="6.02687">
        <ele>782</ele>
        <time>2020-07-20T10:48:32.000Z</time>
      </trkpt>
      <trkpt lat="46.64337" lon="6.02676">
        <ele>782</ele>
        <time>2020-07-20T10:48:32.000Z</time>
      </trkpt>
      <trkpt lat="46.64358" lon="6.02663">
        <ele>779</ele>
        <time>2020-07-20T10:48:32.000Z</time>
      </trkpt>
      <trkpt lat="46.64381" lon="6.02661">
        <ele>778</ele>
        <time>2020-07-20T10:48:32.000Z</time>
      </trkpt>
      <trkpt lat="46.64405" lon="6.02656">
        <ele>784</ele>
        <time>2020-07-20T10:50:40.000Z</time>
      </trkpt>
      <trkpt lat="46.64424" lon="6.02644">
        <ele>778</ele>
        <time>2020-07-20T10:50:40.000Z</time>
      </trkpt>
      <trkpt lat="46.64447" lon="6.02641">
        <ele>785</ele>
        <time>2020-07-20T10:50:40.000Z</time>
      </trkpt>
      <trkpt lat="46.64469" lon="6.02627">
        <ele>789</ele>
        <time>2020-07-20T10:50:40.000Z</time>
      </trkpt>
      <trkpt lat="46.64486" lon="6.02605">
        <ele>784</ele>
        <time>2020-07-20T10:50:40.000Z</time>
      </trkpt>
      <trkpt lat="46.64571" lon="6.0246">
        <ele>816</ele>
        <time>2020-07-20T10:58:38.000Z</time>
      </trkpt>
      <trkpt lat="46.64604" lon="6.02424">
        <ele>778</ele>
        <time>2020-07-20T10:59:26.000Z</time>
      </trkpt>
      <trkpt lat="46.64635" lon="6.0242">
        <ele>769</ele>
        <time>2020-07-20T10:54:56.000Z</time>
      </trkpt>
      <trkpt lat="46.64657" lon="6.02407">
        <ele>766</ele>
        <time>2020-07-20T10:54:56.000Z</time>
      </trkpt>
      <trkpt lat="46.6468" lon="6.02405">
        <ele>767</ele>
        <time>2020-07-20T10:54:56.000Z</time>
      </trkpt>
      <trkpt lat="46.64703" lon="6.02398">
        <ele>768</ele>
        <time>2020-07-20T10:57:04.000Z</time>
      </trkpt>
      <trkpt lat="46.64726" lon="6.02387">
        <ele>766</ele>
        <time>2020-07-20T10:57:04.000Z</time>
      </trkpt>
      <trkpt lat="46.64748" lon="6.02386">
        <ele>764</ele>
        <time>2020-07-20T10:57:04.000Z</time>
      </trkpt>
      <trkpt lat="46.64771" lon="6.02384">
        <ele>762</ele>
        <time>2020-07-20T10:57:04.000Z</time>
      </trkpt>
      <trkpt lat="46.64794" lon="6.02388">
        <ele>767</ele>
        <time>2020-07-20T10:57:04.000Z</time>
      </trkpt>
      <trkpt lat="46.64815" lon="6.02373">
        <ele>754</ele>
        <time>2020-07-20T10:57:04.000Z</time>
      </trkpt>
      <trkpt lat="46.64835" lon="6.02354">
        <ele>742</ele>
        <time>2020-07-20T10:59:12.000Z</time>
      </trkpt>
      <trkpt lat="46.64851" lon="6.0233">
        <ele>754</ele>
        <time>2020-07-20T10:59:12.000Z</time>
      </trkpt>
      <trkpt lat="46.64861" lon="6.02301">
        <ele>759</ele>
        <time>2020-07-20T10:59:12.000Z</time>
      </trkpt>
      <trkpt lat="46.64872" lon="6.02271">
        <ele>761</ele>
        <time>2020-07-20T10:59:12.000Z</time>
      </trkpt>
      <trkpt lat="46.64885" lon="6.02243">
        <ele>764</ele>
        <time>2020-07-20T11:01:20.000Z</time>
      </trkpt>
      <trkpt lat="46.64893" lon="6.02212">
        <ele>759</ele>
        <time>2020-07-20T11:01:20.000Z</time>
      </trkpt>
      <trkpt lat="46.64907" lon="6.02184">
        <ele>758</ele>
        <time>2020-07-20T11:01:20.000Z</time>
      </trkpt>
      <trkpt lat="46.6492" lon="6.02158">
        <ele>756</ele>
        <time>2020-07-20T11:01:20.000Z</time>
      </trkpt>
      <trkpt lat="46.64936" lon="6.02134">
        <ele>756</ele>
        <time>2020-07-20T11:01:20.000Z</time>
      </trkpt>
      <trkpt lat="46.6495" lon="6.02109">
        <ele>753</ele>
        <time>2020-07-20T11:01:20.000Z</time>
      </trkpt>
      <trkpt lat="46.64969" lon="6.02091">
        <ele>751</ele>
        <time>2020-07-20T11:03:28.000Z</time>
      </trkpt>
      <trkpt lat="46.64988" lon="6.02071">
        <ele>751</ele>
        <time>2020-07-20T11:03:28.000Z</time>
      </trkpt>
      <trkpt lat="46.65006" lon="6.0205">
        <ele>749</ele>
        <time>2020-07-20T11:03:28.000Z</time>
      </trkpt>
      <trkpt lat="46.65026" lon="6.02035">
        <ele>748</ele>
        <time>2020-07-20T11:03:28.000Z</time>
      </trkpt>
      <trkpt lat="46.65047" lon="6.0202">
        <ele>748</ele>
        <time>2020-07-20T11:03:28.000Z</time>
      </trkpt>
      <trkpt lat="46.65068" lon="6.02007">
        <ele>746</ele>
        <time>2020-07-20T11:03:28.000Z</time>
      </trkpt>
      <trkpt lat="46.6509" lon="6.01994">
        <ele>748</ele>
        <time>2020-07-20T11:03:28.000Z</time>
      </trkpt>
      <trkpt lat="46.65112" lon="6.01982">
        <ele>745</ele>
        <time>2020-07-20T11:05:36.000Z</time>
      </trkpt>
      <trkpt lat="46.65135" lon="6.01981">
        <ele>744</ele>
        <time>2020-07-20T11:05:36.000Z</time>
      </trkpt>
      <trkpt lat="46.65154" lon="6.01964">
        <ele>740</ele>
        <time>2020-07-20T11:05:36.000Z</time>
      </trkpt>
      <trkpt lat="46.65173" lon="6.01944">
        <ele>732</ele>
        <time>2020-07-20T11:05:36.000Z</time>
      </trkpt>
      <trkpt lat="46.6518" lon="6.01912">
        <ele>738</ele>
        <time>2020-07-20T11:05:36.000Z</time>
      </trkpt>
      <trkpt lat="46.65186" lon="6.01878">
        <ele>738</ele>
        <time>2020-07-20T11:05:36.000Z</time>
      </trkpt>
      <trkpt lat="46.65189" lon="6.01845">
        <ele>737</ele>
        <time>2020-07-20T11:05:36.000Z</time>
      </trkpt>
      <trkpt lat="46.65186" lon="6.01811">
        <ele>737</ele>
        <time>2020-07-20T11:07:44.000Z</time>
      </trkpt>
      <trkpt lat="46.6518" lon="6.01778">
        <ele>738</ele>
        <time>2020-07-20T11:07:44.000Z</time>
      </trkpt>
      <trkpt lat="46.65173" lon="6.01747">
        <ele>738</ele>
        <time>2020-07-20T11:07:44.000Z</time>
      </trkpt>
      <trkpt lat="46.65173" lon="6.01714">
        <ele>739</ele>
        <time>2020-07-20T11:07:44.000Z</time>
      </trkpt>
      <trkpt lat="46.65176" lon="6.0168">
        <ele>741</ele>
        <time>2020-07-20T11:07:44.000Z</time>
      </trkpt>
      <trkpt lat="46.65188" lon="6.0165">
        <ele>742</ele>
        <time>2020-07-20T11:09:52.000Z</time>
      </trkpt>
      <trkpt lat="46.652" lon="6.01622">
        <ele>737</ele>
        <time>2020-07-20T11:09:52.000Z</time>
      </trkpt>
      <trkpt lat="46.6521" lon="6.01591">
        <ele>735</ele>
        <time>2020-07-20T11:09:52.000Z</time>
      </trkpt>
      <trkpt lat="46.65221" lon="6.01562">
        <ele>739</ele>
        <time>2020-07-20T11:09:52.000Z</time>
      </trkpt>
      <trkpt lat="46.65231" lon="6.01532">
        <ele>733</ele>
        <time>2020-07-20T11:09:52.000Z</time>
      </trkpt>
      <trkpt lat="46.65249" lon="6.01509">
        <ele>733</ele>
        <time>2020-07-20T11:09:52.000Z</time>
      </trkpt>
      <trkpt lat="46.65267" lon="6.01489">
        <ele>733</ele>
        <time>2020-07-20T11:09:52.000Z</time>
      </trkpt>
      <trkpt lat="46.65286" lon="6.01472">
        <ele>737</ele>
        <time>2020-07-20T11:12:00.000Z</time>
      </trkpt>
      <trkpt lat="46.65306" lon="6.01454">
        <ele>737</ele>
        <time>2020-07-20T11:12:00.000Z</time>
      </trkpt>
      <trkpt lat="46.65324" lon="6.01433">
        <ele>733</ele>
        <time>2020-07-20T11:12:00.000Z</time>
      </trkpt>
      <trkpt lat="46.65341" lon="6.01411">
        <ele>737</ele>
        <time>2020-07-20T11:12:00.000Z</time>
      </trkpt>
      <trkpt lat="46.65358" lon="6.01389">
        <ele>733</ele>
        <time>2020-07-20T11:12:00.000Z</time>
      </trkpt>
      <trkpt lat="46.65378" lon="6.01373">
        <ele>730</ele>
        <time>2020-07-20T11:12:00.000Z</time>
      </trkpt>
      <trkpt lat="46.65397" lon="6.01353">
        <ele>733</ele>
        <time>2020-07-20T11:12:00.000Z</time>
      </trkpt>
      <trkpt lat="46.65413" lon="6.01329">
        <ele>732</ele>
        <time>2020-07-20T11:14:08.000Z</time>
      </trkpt>
      <trkpt lat="46.65419" lon="6.01297">
        <ele>728</ele>
        <time>2020-07-20T11:14:08.000Z</time>
      </trkpt>
      <trkpt lat="46.65428" lon="6.01265">
        <ele>726</ele>
        <time>2020-07-20T11:14:08.000Z</time>
      </trkpt>
      <trkpt lat="46.65432" lon="6.01233">
        <ele>724</ele>
        <time>2020-07-20T11:14:08.000Z</time>
      </trkpt>
      <trkpt lat="46.65431" lon="6.01198">
        <ele>721</ele>
        <time>2020-07-20T11:14:08.000Z</time>
      </trkpt>
      <trkpt lat="46.65427" lon="6.01129">
        <ele>722</ele>
        <time>2020-07-20T11:15:13.000Z</time>
      </trkpt>
      <trkpt lat="46.65395" lon="6.00979">
        <ele>724</ele>
        <time>2020-07-20T11:16:16.000Z</time>
      </trkpt>
      <trkpt lat="46.65381" lon="6.00952">
        <ele>723</ele>
        <time>2020-07-20T11:18:24.000Z</time>
      </trkpt>
      <trkpt lat="46.65384" lon="6.00914">
        <ele>723</ele>
        <time>2020-07-20T11:18:24.000Z</time>
      </trkpt>
      <trkpt lat="46.65412" lon="6.00916">
        <ele>723</ele>
        <time>2020-07-20T11:18:24.000Z</time>
      </trkpt>
      <trkpt lat="46.65434" lon="6.00909">
        <ele>723</ele>
        <time>2020-07-20T11:20:32.000Z</time>
      </trkpt>
      <trkpt lat="46.65458" lon="6.00906">
        <ele>722</ele>
        <time>2020-07-20T11:20:32.000Z</time>
      </trkpt>
      <trkpt lat="46.65481" lon="6.00909">
        <ele>721</ele>
        <time>2020-07-20T11:20:32.000Z</time>
      </trkpt>
      <trkpt lat="46.65504" lon="6.00905">
        <ele>720</ele>
        <time>2020-07-20T11:20:32.000Z</time>
      </trkpt>
      <trkpt lat="46.6551" lon="6.00874">
        <ele>717</ele>
        <time>2020-07-20T11:20:32.000Z</time>
      </trkpt>
      <trkpt lat="46.65501" lon="6.00842">
        <ele>717</ele>
        <time>2020-07-20T11:20:32.000Z</time>
      </trkpt>
      <trkpt lat="46.65493" lon="6.00811">
        <ele>716</ele>
        <time>2020-07-20T11:20:32.000Z</time>
      </trkpt>
      <trkpt lat="46.65496" lon="6.00779">
        <ele>714</ele>
        <time>2020-07-20T11:22:40.000Z</time>
      </trkpt>
      <trkpt lat="46.65517" lon="6.00763">
        <ele>712</ele>
        <time>2020-07-20T11:22:40.000Z</time>
      </trkpt>
      <trkpt lat="46.6554" lon="6.00761">
        <ele>711</ele>
        <time>2020-07-20T11:22:40.000Z</time>
      </trkpt>
      <trkpt lat="46.65562" lon="6.0075">
        <ele>709</ele>
        <time>2020-07-20T11:22:40.000Z</time>
      </trkpt>
      <trkpt lat="46.65582" lon="6.00732">
        <ele>707</ele>
        <time>2020-07-20T11:22:40.000Z</time>
      </trkpt>
      <trkpt lat="46.656" lon="6.00711">
        <ele>706</ele>
        <time>2020-07-20T11:22:40.000Z</time>
      </trkpt>
      <trkpt lat="46.65617" lon="6.00689">
        <ele>703</ele>
        <time>2020-07-20T11:24:48.000Z</time>
      </trkpt>
      <trkpt lat="46.65633" lon="6.00665">
        <ele>701</ele>
        <time>2020-07-20T11:24:48.000Z</time>
      </trkpt>
      <trkpt lat="46.65647" lon="6.0064">
        <ele>698</ele>
        <time>2020-07-20T11:24:48.000Z</time>
      </trkpt>
      <trkpt lat="46.65648" lon="6.00607">
        <ele>697</ele>
        <time>2020-07-20T11:24:48.000Z</time>
      </trkpt>
      <trkpt lat="46.65641" lon="6.00575">
        <ele>695</ele>
        <time>2020-07-20T11:24:48.000Z</time>
      </trkpt>
      <trkpt lat="46.65607" lon="6.00545">
        <ele>697</ele>
        <time>2020-07-20T11:25:54.000Z</time>
      </trkpt>
      <trkpt lat="46.65592" lon="6.00522">
        <ele>696</ele>
        <time>2020-07-20T11:24:48.000Z</time>
      </trkpt>
    </trkseg>
  </trk>
</gpx>